Terminal Aerodrome Forecast
Issued by NWS

Home | Current Version | Previous Version | Text Only | Print | Product List | Glossary Off
Versions: 1 2 3 4 5 6 7 8 9 10 11 12 13 14 15 16 17 18 19 20

000
FTUS42 KMHX 300100 AAA
TAFISO
TAF AMD
KISO 300104Z 3001/3024 00000KT 4SM -RA SCT010
     FM300600 01003KT 1SM BR BKN003
     FM301400 01005KT P6SM SCT100
     FM301900 01005KT P6SM FEW040
      AMD LTD TO CLD VIS AND WIND=

USA.gov is the U.S. government's official web portal to all federal, state and local government web resources and services.